Bar Harbor, New York
Current Conditions -  °F | °C
As of 7:53 AM on Friday 19 Dec 2014 (Local Time) from KFRG Reporting Station
Overcast Overcast  
Wind Chill: 32°   Ceiling: 3300
Heat Index: 37°   Visibility: 10mi
Dew Point: 24°   Wind: 6mph
Humidity: 59%   Direction: NA
Pressure: 30.01"   Gusts: NA
Location:  40.683°N, 73.4455°W
Report Text: KFRG 191253Z VRB05KT 10SM OVC033 03/M04 A3001 RMK AO2 SLP162 T00281044
Loading
Personal Weather Stations






























Interactive Weather Map New forecast layout! Learn more

10-Day Weather Forecast

Advertisements
Track Severe Weather on mobile